createdAt,value
2023-02-06T00:02:10.185Z,104382.34
2023-02-06T00:04:37.656Z,104382.34
2023-02-06T00:07:05.205Z,104382.34
2023-02-06T00:09:32.649Z,104388.25
2023-02-06T00:12:00.059Z,104395.75
2023-02-06T00:14:27.535Z,104382.78
2023-02-06T00:16:55.022Z,104388.56
2023-02-06T00:19:22.474Z,104380.63
2023-02-06T00:21:49.845Z,104384.28
2023-02-06T00:24:17.305Z,104376.00
2023-02-06T00:26:44.761Z,104372.16
2023-02-06T00:29:12.207Z,104365.22
2023-02-06T00:31:39.662Z,104373.19
2023-02-06T00:34:07.172Z,104376.22
2023-02-06T00:36:34.658Z,104378.25
2023-02-06T00:39:02.134Z,104381.63
2023-02-06T00:41:29.558Z,104372.41
2023-02-06T00:43:57.019Z,104373.19
2023-02-06T00:46:24.415Z,104360.75
2023-02-06T00:48:51.845Z,104369.28
2023-02-06T00:51:19.250Z,104364.59
2023-02-06T00:53:46.618Z,104380.28
2023-02-06T00:56:14.067Z,104374.00
2023-02-06T00:58:41.567Z,104381.06
2023-02-06T01:01:09.089Z,104369.09
2023-02-06T01:03:36.577Z,104369.75
2023-02-06T01:06:04.054Z,104368.19
2023-02-06T01:08:31.469Z,104369.22
2023-02-06T01:10:58.878Z,104375.38
2023-02-06T01:13:26.318Z,104378.72
2023-02-06T01:15:53.812Z,104385.69
2023-02-06T01:18:21.265Z,104392.88
2023-02-06T01:20:48.635Z,104393.66
2023-02-06T01:23:16.014Z,104394.69
2023-02-06T01:25:43.471Z,104393.09
2023-02-06T01:28:10.941Z,104387.41
2023-02-06T01:30:39.777Z,104389.72
2023-02-06T01:33:07.299Z,104391.31
2023-02-06T01:35:35.000Z,104392.66
2023-02-06T01:38:02.591Z,104392.25
2023-02-06T01:40:29.986Z,104395.06
2023-02-06T01:42:57.395Z,104401.41
2023-02-06T01:45:27.894Z,104396.47
2023-02-06T01:47:57.424Z,104393.53
2023-02-06T01:50:24.876Z,104390.94
2023-02-06T01:52:52.372Z,104384.75
2023-02-06T01:55:19.860Z,104373.09
2023-02-06T01:57:47.310Z,104371.78
2023-02-06T02:00:14.945Z,104377.19
2023-02-06T02:02:48.273Z,104373.09
2023-02-06T02:05:17.501Z,104361.00
2023-02-06T02:08:01.157Z,104366.38
2023-02-06T02:10:31.857Z,104365.97
2023-02-06T02:12:59.359Z,104366.06
2023-02-06T02:15:35.341Z,104360.91
2023-02-06T02:18:25.669Z,104359.34
2023-02-06T02:21:19.443Z,104366.63
2023-02-06T02:23:51.834Z,104354.97
2023-02-06T02:26:45.739Z,104353.06
2023-02-06T02:29:13.095Z,104345.09
2023-02-06T02:31:57.824Z,104353.03
2023-02-06T02:34:45.893Z,104357.63
2023-02-06T02:37:27.333Z,104363.34
2023-02-06T02:40:07.809Z,104353.34
2023-02-06T02:42:35.400Z,104345.84
2023-02-06T02:45:10.447Z,104344.53
2023-02-06T02:47:50.700Z,104346.66
2023-02-06T02:50:19.239Z,104340.59
2023-02-06T02:52:46.691Z,104312.09
2023-02-06T02:55:18.402Z,104333.41
2023-02-06T02:57:47.316Z,104328.25
2023-02-06T03:00:16.013Z,104329.06
2023-02-06T03:02:44.192Z,104330.91
2023-02-06T03:05:13.854Z,104330.22
2023-02-06T03:07:59.443Z,104329.31
2023-02-06T03:10:29.641Z,104327.09
2023-02-06T03:13:03.938Z,104330.22
2023-02-06T03:15:34.709Z,104335.06
2023-02-06T03:18:06.420Z,104334.03
2023-02-06T03:20:34.134Z,104337.31
2023-02-06T03:23:03.992Z,104339.75
2023-02-06T03:25:36.496Z,104337.09
2023-02-06T03:28:06.058Z,104335.38
2023-02-06T03:30:33.994Z,104342.13
2023-02-06T03:33:05.054Z,104337.34
2023-02-06T03:35:34.847Z,104332.19
2023-02-06T03:38:02.981Z,104335.03
2023-02-06T03:40:30.862Z,104329.72
2023-02-06T03:43:00.147Z,104329.34
2023-02-06T03:45:30.969Z,104338.41
2023-02-06T03:48:01.114Z,104339.22
2023-02-06T03:50:28.765Z,104342.03
2023-02-06T03:52:58.032Z,104347.44
2023-02-06T03:55:25.606Z,104342.59
2023-02-06T03:57:56.023Z,104338.78
2023-02-06T04:00:23.910Z,104339.31
2023-02-06T04:02:53.263Z,104340.56
2023-02-06T04:05:21.088Z,104339.81
2023-02-06T04:07:48.746Z,104341.09
2023-02-06T04:10:16.295Z,104343.94
2023-02-06T04:12:43.689Z,104345.91
2023-02-06T04:15:11.202Z,104338.78
2023-02-06T04:17:53.553Z,104347.00
2023-02-06T04:20:25.288Z,104348.09
2023-02-06T04:22:52.683Z,104354.53
2023-02-06T04:25:20.128Z,104320.63
2023-02-06T04:27:47.620Z,104348.38
2023-02-06T04:30:15.921Z,104341.56
2023-02-06T04:32:43.360Z,104345.56
2023-02-06T04:35:10.890Z,104352.50
2023-02-06T04:37:38.652Z,104345.44
2023-02-06T04:40:06.380Z,104347.88
2023-02-06T04:42:33.810Z,104347.09
2023-02-06T04:45:01.224Z,104343.00
2023-02-06T04:47:28.656Z,104346.59
2023-02-06T04:49:56.105Z,104330.91
2023-02-06T04:52:23.557Z,104323.97
2023-02-06T04:54:51.005Z,104330.41
2023-02-06T04:57:18.447Z,104323.47
2023-02-06T04:59:45.898Z,104333.47
2023-02-06T05:02:13.289Z,104342.63
2023-02-06T05:04:40.762Z,104335.44
2023-02-06T05:07:08.184Z,104347.91
2023-02-06T05:09:35.666Z,104355.34
2023-02-06T05:12:03.073Z,104361.25
2023-02-06T05:14:30.502Z,104345.81
2023-02-06T05:16:57.992Z,104345.97
2023-02-06T05:19:25.384Z,104346.88
2023-02-06T05:21:52.826Z,104341.72
2023-02-06T05:24:20.261Z,104354.88
2023-02-06T05:26:47.773Z,104357.41
2023-02-06T05:29:15.158Z,104363.06
2023-02-06T05:31:42.663Z,104357.91
2023-02-06T05:34:10.863Z,104365.91
2023-02-06T05:36:38.744Z,104364.06
2023-02-06T05:39:06.186Z,104368.47
2023-02-06T05:41:33.642Z,104371.66
2023-02-06T05:44:01.045Z,104367.44
2023-02-06T05:46:28.492Z,104375.25
2023-02-06T05:48:55.957Z,104365.50
2023-02-06T05:51:23.413Z,104361.25
2023-02-06T05:53:50.860Z,104366.41
2023-02-06T05:56:18.272Z,104367.69
2023-02-06T05:58:45.703Z,104366.16
2023-02-06T06:01:13.821Z,104368.22
2023-02-06T06:03:41.311Z,104367.44
2023-02-06T06:06:08.922Z,104370.53
2023-02-06T06:08:36.468Z,104369.13
2023-02-06T06:11:03.939Z,104374.91
2023-02-06T06:13:31.468Z,104378.50
2023-02-06T06:15:58.954Z,104382.09
2023-02-06T06:18:26.363Z,104379.00
2023-02-06T06:20:54.504Z,104379.28
2023-02-06T06:23:21.922Z,104376.19
2023-02-06T06:25:49.659Z,104369.75
2023-02-06T06:28:17.196Z,104367.44
2023-02-06T06:30:44.754Z,104376.06
2023-02-06T06:33:14.180Z,104364.34
2023-02-06T06:35:41.616Z,104367.97
2023-02-06T06:38:09.231Z,104383.91
2023-02-06T06:40:36.675Z,104379.00
2023-02-06T06:43:04.576Z,104387.09
2023-02-06T06:45:32.009Z,104382.88
2023-02-06T06:47:59.568Z,104348.28
2023-02-06T06:50:27.772Z,104365.88
2023-02-06T06:52:55.198Z,104368.72
2023-02-06T06:55:22.625Z,104364.97
2023-02-06T06:57:50.060Z,104368.44
2023-02-06T07:00:17.634Z,104362.78
2023-02-06T07:02:45.219Z,104363.78
2023-02-06T07:05:12.838Z,104357.34
2023-02-06T07:07:40.385Z,104347.47
2023-02-06T07:10:08.680Z,104355.53
2023-02-06T07:12:36.116Z,104354.16
2023-02-06T07:15:03.613Z,104350.78
2023-02-06T07:17:31.079Z,104342.84
2023-02-06T07:19:59.356Z,104349.13
2023-02-06T07:22:27.029Z,104340.91
2023-02-06T07:24:55.108Z,104342.72
2023-02-06T07:27:22.496Z,104344.50
2023-02-06T07:29:49.977Z,104340.38
2023-02-06T07:32:17.378Z,104337.81
2023-02-06T07:34:44.774Z,104335.34
2023-02-06T07:37:12.267Z,104326.22
2023-02-06T07:39:39.672Z,104324.00
2023-02-06T07:42:08.104Z,104314.63
2023-02-06T07:44:35.577Z,104315.63
2023-02-06T07:47:03.060Z,104303.28
2023-02-06T07:49:30.501Z,104301.97
2023-02-06T07:51:57.896Z,104315.81
2023-02-06T07:54:25.464Z,104310.91
2023-02-06T07:56:53.034Z,104308.56
2023-02-06T07:59:20.661Z,104301.16
2023-02-06T08:01:48.110Z,104299.75
2023-02-06T08:04:15.642Z,104296.97
2023-02-06T08:06:43.910Z,104290.84
2023-02-06T08:09:17.137Z,104286.19
2023-02-06T08:11:44.844Z,104281.47
2023-02-06T08:14:12.402Z,104275.25
2023-02-06T08:16:40.314Z,104266.19
2023-02-06T08:19:10.881Z,104265.66
2023-02-06T08:21:38.672Z,104259.38
2023-02-06T08:24:06.239Z,104262.97
2023-02-06T08:26:33.695Z,104252.56
2023-02-06T08:29:02.647Z,104264.13
2023-02-06T08:31:37.700Z,104248.88
2023-02-06T08:34:05.920Z,104251.56
2023-02-06T08:36:34.035Z,104245.06
2023-02-06T08:39:02.533Z,104242.84
2023-02-06T08:41:31.435Z,104248.75
2023-02-06T08:44:00.714Z,104245.84
2023-02-06T08:46:29.499Z,104242.16
2023-02-06T08:48:57.700Z,104241.50
2023-02-06T08:51:27.836Z,104228.69
2023-02-06T08:53:59.030Z,104231.84
2023-02-06T08:56:26.797Z,104229.91
2023-02-06T08:58:54.674Z,104236.22
2023-02-06T09:01:22.444Z,104242.47
2023-02-06T09:03:49.900Z,104238.09
2023-02-06T09:06:17.659Z,104243.25
2023-02-06T09:08:45.131Z,104241.69
2023-02-06T09:11:15.689Z,104241.34
2023-02-06T09:13:43.492Z,104252.44
2023-02-06T09:16:10.971Z,104254.44
2023-02-06T09:18:38.811Z,104244.69
2023-02-06T09:21:11.540Z,104243.41
2023-02-06T09:23:40.136Z,104239.56
2023-02-06T09:26:07.840Z,104241.16
2023-02-06T09:28:35.278Z,104256.59
2023-02-06T09:31:02.999Z,104249.50
2023-02-06T09:33:31.010Z,104239.16
2023-02-06T09:36:15.203Z,104245.75
2023-02-06T09:38:43.997Z,104262.88
2023-02-06T09:41:18.558Z,104259.56
2023-02-06T09:43:58.101Z,104262.19
2023-02-06T09:46:28.129Z,104265.56
2023-02-06T09:48:58.178Z,104265.69
2023-02-06T09:51:43.533Z,104261.84
2023-02-06T09:54:17.642Z,104271.81
2023-02-06T09:56:47.886Z,104267.06
2023-02-06T09:59:17.593Z,104278.00
2023-02-06T10:02:08.732Z,104269.88
2023-02-06T10:04:43.613Z,104266.97
2023-02-06T10:07:17.241Z,104259.81
2023-02-06T10:09:51.170Z,104267.88
2023-02-06T10:12:47.862Z,104270.22
2023-02-06T10:15:47.828Z,104276.97
2023-02-06T10:18:24.940Z,104272.91
2023-02-06T10:20:56.160Z,104268.31
2023-02-06T10:23:42.756Z,104263.50
2023-02-06T10:26:17.637Z,104247.53
2023-02-06T10:28:49.782Z,104242.78
2023-02-06T10:31:17.289Z,104241.34
2023-02-06T10:34:01.102Z,104238.44
2023-02-06T10:36:47.247Z,104235.63
2023-02-06T10:39:20.996Z,104233.84
2023-02-06T10:41:48.629Z,104220.25
2023-02-06T10:44:27.095Z,104226.44
2023-02-06T10:46:55.964Z,104232.59
2023-02-06T10:49:35.709Z,104227.41
2023-02-06T10:52:07.972Z,104228.69
2023-02-06T10:54:40.971Z,104227.88
2023-02-06T10:57:17.076Z,104226.09
2023-02-06T10:59:47.988Z,104224.63
2023-02-06T11:02:31.569Z,104211.97
2023-02-06T11:05:05.312Z,104218.13
2023-02-06T11:07:37.637Z,104196.38
2023-02-06T11:10:05.746Z,104220.09
2023-02-06T11:12:43.488Z,104218.81
2023-02-06T11:15:33.942Z,104223.44
2023-02-06T11:18:03.220Z,104216.69
2023-02-06T11:20:33.273Z,104227.09
2023-02-06T11:23:14.911Z,104225.34
2023-02-06T11:25:42.891Z,104230.34
2023-02-06T11:28:14.582Z,104223.34
2023-02-06T11:30:43.926Z,104222.44
2023-02-06T11:33:30.310Z,104215.91
2023-02-06T11:36:01.335Z,104206.19
2023-02-06T11:38:30.142Z,104197.16
2023-02-06T11:40:57.592Z,104193.28
2023-02-06T11:43:26.271Z,104191.00
2023-02-06T11:46:06.832Z,104198.78
2023-02-06T11:48:36.777Z,104202.91
2023-02-06T11:51:05.233Z,104190.63
2023-02-06T11:53:32.909Z,104186.31
2023-02-06T11:56:26.756Z,104175.75
2023-02-06T11:59:04.965Z,104181.22
2023-02-06T12:01:48.633Z,104177.78
2023-02-06T12:04:23.619Z,104174.69
2023-02-06T12:06:55.972Z,104177.78
2023-02-06T12:09:23.435Z,104169.78
2023-02-06T12:11:56.925Z,104170.06
2023-02-06T12:14:36.322Z,104168.38
2023-02-06T12:17:04.449Z,104156.34
2023-02-06T12:19:45.421Z,104155.91
2023-02-06T12:22:14.875Z,104141.72
2023-02-06T12:24:45.188Z,104148.72
2023-02-06T12:27:20.793Z,104149.38
2023-02-06T12:29:54.432Z,104149.06
2023-02-06T12:32:25.223Z,104152.59
2023-02-06T12:34:54.383Z,104149.91
2023-02-06T12:37:42.478Z,104156.09
2023-02-06T12:40:17.290Z,104149.00
2023-02-06T12:42:48.452Z,104141.50
2023-02-06T12:45:28.158Z,104133.03
2023-02-06T12:48:00.280Z,104132.06
2023-02-06T12:50:29.645Z,104126.75
2023-02-06T12:53:03.535Z,104123.63
2023-02-06T12:55:36.230Z,104122.94
2023-02-06T12:58:04.563Z,104116.31
2023-02-06T13:00:44.936Z,104114.03
2023-02-06T13:03:18.634Z,104109.44
2023-02-06T13:05:47.968Z,104118.75
2023-02-06T13:08:17.592Z,104107.44
2023-02-06T13:10:45.255Z,104109.69
2023-02-06T13:13:30.187Z,104114.41
2023-02-06T13:16:00.542Z,104102.31
2023-02-06T13:18:40.252Z,104094.75
2023-02-06T13:21:16.749Z,104096.41
2023-02-06T13:24:13.467Z,104092.56
2023-02-06T13:27:01.884Z,104092.31
2023-02-06T13:29:30.125Z,104078.88
2023-02-06T13:32:22.790Z,104072.81
2023-02-06T13:34:50.513Z,104062.25
2023-02-06T13:37:26.989Z,104062.53
2023-02-06T13:40:13.105Z,104058.22
2023-02-06T13:42:40.547Z,104057.56
2023-02-06T13:45:11.438Z,104065.66
2023-02-06T13:47:50.964Z,104067.44
2023-02-06T13:50:21.276Z,104068.50
2023-02-06T13:52:51.530Z,104053.38
2023-02-06T13:55:30.127Z,104075.13
2023-02-06T13:57:58.290Z,104070.38
2023-02-06T14:00:28.854Z,104068.94
2023-02-06T14:03:07.252Z,104073.34
2023-02-06T14:05:53.558Z,104064.91
2023-02-06T14:08:40.319Z,104056.28
2023-02-06T14:11:18.702Z,104058.72
2023-02-06T14:14:05.293Z,104048.44
2023-02-06T14:16:41.965Z,104054.22
2023-02-06T14:19:32.211Z,104052.28
2023-02-06T14:22:06.991Z,104055.72
2023-02-06T14:24:44.500Z,104044.00
2023-02-06T14:27:14.950Z,104053.03
2023-02-06T14:29:48.710Z,104048.47
2023-02-06T14:32:34.709Z,104051.28
2023-02-06T14:35:28.101Z,104045.81
2023-02-06T14:37:58.540Z,104057.28
2023-02-06T14:40:27.879Z,104058.69
2023-02-06T14:42:57.823Z,104053.03
2023-02-06T14:45:33.749Z,104063.63
2023-02-06T14:48:07.228Z,104057.94
2023-02-06T14:50:36.851Z,104073.41
2023-02-06T14:53:23.240Z,104070.47
2023-02-06T14:55:50.747Z,104082.72
2023-02-06T14:58:21.700Z,104074.94
2023-02-06T15:00:49.103Z,104078.25
2023-02-06T15:03:17.980Z,104074.50
2023-02-06T15:05:45.946Z,104083.41
2023-02-06T15:08:17.610Z,104090.00
2023-02-06T15:10:45.190Z,104092.66
2023-02-06T15:13:22.743Z,104088.47
2023-02-06T15:15:54.851Z,104085.22
2023-02-06T15:18:22.638Z,104086.50
2023-02-06T15:20:55.203Z,104088.34
2023-02-06T15:23:22.635Z,104087.97
2023-02-06T15:25:50.073Z,104088.53
2023-02-06T15:28:19.982Z,104088.09
2023-02-06T15:30:48.299Z,104089.53
2023-02-06T15:33:22.785Z,104092.91
2023-02-06T15:35:54.761Z,104093.38
2023-02-06T15:38:23.685Z,104090.94
2023-02-06T15:40:53.919Z,104086.38
2023-02-06T15:43:24.591Z,104082.97
2023-02-06T15:45:53.020Z,104069.06
2023-02-06T15:48:34.865Z,104081.91
2023-02-06T15:51:22.629Z,104079.59
2023-02-06T15:53:51.035Z,104080.75
2023-02-06T15:56:21.440Z,104080.56
2023-02-06T15:58:55.203Z,104077.25
2023-02-06T16:01:22.662Z,104076.91
2023-02-06T16:03:53.227Z,104071.03
2023-02-06T16:06:20.811Z,104080.31
2023-02-06T16:08:53.218Z,104076.28
2023-02-06T16:11:38.108Z,104077.28
2023-02-06T16:14:05.809Z,104068.69
2023-02-06T16:16:33.715Z,104069.31
2023-02-06T16:19:01.254Z,104068.31
2023-02-06T16:21:34.584Z,104074.03
2023-02-06T16:24:03.380Z,104073.16
2023-02-06T16:26:40.084Z,104077.78
2023-02-06T16:29:10.357Z,104073.69
2023-02-06T16:31:39.193Z,104079.41
2023-02-06T16:34:25.713Z,104078.88
2023-02-06T16:36:53.202Z,104054.56
2023-02-06T16:39:22.001Z,104084.06
2023-02-06T16:41:51.946Z,104082.81
2023-02-06T16:44:20.384Z,104087.09
2023-02-06T16:46:47.954Z,104085.94
2023-02-06T16:49:21.580Z,104089.41
2023-02-06T16:51:50.551Z,104086.66
2023-02-06T16:54:26.062Z,104101.00
2023-02-06T16:56:57.520Z,104104.22
2023-02-06T16:59:24.938Z,104068.66
2023-02-06T17:01:52.378Z,104100.47
2023-02-06T17:04:19.993Z,104095.28
2023-02-06T17:06:47.609Z,104102.44
2023-02-06T17:09:18.390Z,104105.34
2023-02-06T17:11:45.856Z,104101.09
2023-02-06T17:14:13.301Z,104105.59
2023-02-06T17:16:40.778Z,104114.84
2023-02-06T17:19:08.193Z,104119.91
2023-02-06T17:21:36.255Z,104110.56
2023-02-06T17:24:03.797Z,104116.63
2023-02-06T17:26:31.323Z,104107.19
2023-02-06T17:28:58.854Z,104109.88
2023-02-06T17:31:26.451Z,104094.13
2023-02-06T17:33:54.358Z,104106.81
2023-02-06T17:36:29.205Z,104089.47
2023-02-06T17:38:58.810Z,104098.38
2023-02-06T17:41:27.162Z,104097.84
2023-02-06T17:43:54.617Z,104101.25
2023-02-06T17:46:22.090Z,104091.91
2023-02-06T17:48:49.802Z,104088.25
2023-02-06T17:51:17.213Z,104095.91
2023-02-06T17:53:44.700Z,104088.97
2023-02-06T17:56:13.187Z,104090.75
2023-02-06T17:58:44.051Z,104091.06
2023-02-06T18:01:12.802Z,104097.34
2023-02-06T18:03:40.496Z,104102.91
2023-02-06T18:06:08.391Z,104104.41
2023-02-06T18:08:35.939Z,104098.06
2023-02-06T18:11:08.276Z,104102.13
2023-02-06T18:13:35.837Z,104089.66
2023-02-06T18:16:03.478Z,104081.44
2023-02-06T18:18:31.612Z,104078.25
2023-02-06T18:20:59.354Z,104079.84
2023-02-06T18:23:26.868Z,104076.63
2023-02-06T18:25:54.246Z,104080.41
2023-02-06T18:28:21.730Z,104075.06
2023-02-06T18:30:49.265Z,104078.41
2023-02-06T18:33:16.722Z,104077.53
2023-02-06T18:35:46.380Z,104068.19
2023-02-06T18:38:15.117Z,104077.59
2023-02-06T18:40:43.002Z,104078.28
2023-02-06T18:43:09.821Z,104066.66
2023-02-06T18:45:38.245Z,104067.34
2023-02-06T18:48:07.491Z,104070.81
2023-02-06T18:50:36.331Z,104060.97
2023-02-06T18:53:04.352Z,104071.22
2023-02-06T18:55:34.816Z,104066.22
2023-02-06T18:58:02.760Z,104065.63
2023-02-06T19:00:30.352Z,104077.56
2023-02-06T19:03:00.568Z,104059.84
2023-02-06T19:05:29.052Z,104058.47
2023-02-06T19:07:56.471Z,104068.88
2023-02-06T19:10:25.770Z,104052.25
2023-02-06T19:12:53.196Z,104059.06
2023-02-06T19:15:20.787Z,104036.47
2023-02-06T19:17:49.385Z,104056.16
2023-02-06T19:20:17.114Z,104048.13
2023-02-06T19:22:44.547Z,104052.44
2023-02-06T19:25:14.422Z,104050.88
2023-02-06T19:27:42.276Z,104048.88
2023-02-06T19:30:10.110Z,104047.91
2023-02-06T19:32:37.628Z,104045.69
2023-02-06T19:35:05.417Z,104046.25
2023-02-06T19:37:32.876Z,104045.25
2023-02-06T19:40:00.602Z,104046.03
2023-02-06T19:42:28.477Z,104049.84
2023-02-06T19:44:56.125Z,104042.56
2023-02-06T19:47:23.938Z,104045.78
2023-02-06T19:49:53.163Z,104058.13
2023-02-06T19:52:21.177Z,104058.03
2023-02-06T19:54:48.953Z,104049.63
2023-02-06T19:57:19.400Z,104051.31
2023-02-06T19:59:47.225Z,104058.59
2023-02-06T20:02:15.810Z,104058.59
2023-02-06T20:04:45.317Z,104056.59
2023-02-06T20:07:13.384Z,104059.25
2023-02-06T20:09:42.071Z,104053.53
2023-02-06T20:12:13.559Z,104054.34
2023-02-06T20:14:41.294Z,104053.88
2023-02-06T20:17:09.155Z,104043.47
2023-02-06T20:19:37.024Z,104044.56
2023-02-06T20:22:04.817Z,104047.94
2023-02-06T20:24:33.171Z,104046.81
2023-02-06T20:27:03.342Z,104057.00
2023-02-06T20:29:32.916Z,104045.81
2023-02-06T20:32:01.514Z,104049.19
2023-02-06T20:34:29.917Z,104045.91
2023-02-06T20:36:58.049Z,104048.47
2023-02-06T20:39:26.251Z,104053.22
2023-02-06T20:41:54.534Z,104053.44
2023-02-06T20:44:22.357Z,104046.47
2023-02-06T20:46:50.125Z,104048.59
2023-02-06T20:49:19.144Z,104046.47
2023-02-06T20:51:46.906Z,104033.81
2023-02-06T20:54:14.660Z,104042.88
2023-02-06T20:56:42.862Z,104031.66
2023-02-06T20:59:13.560Z,104025.47
2023-02-06T21:01:48.048Z,104044.16
2023-02-06T21:04:17.467Z,104033.81
2023-02-06T21:06:48.195Z,104038.19
2023-02-06T21:09:16.885Z,104030.84
2023-02-06T21:11:46.648Z,104041.81
2023-02-06T21:14:15.892Z,104046.94
2023-02-06T21:16:43.755Z,104042.84
2023-02-06T21:19:11.833Z,104041.84
2023-02-06T21:21:40.081Z,104036.94
2023-02-06T21:24:08.637Z,104037.97
2023-02-06T21:26:36.423Z,104040.16
2023-02-06T21:29:04.380Z,104045.16
2023-02-06T21:31:36.930Z,104045.50
2023-02-06T21:34:09.766Z,104032.88
2023-02-06T21:36:38.214Z,104046.41
2023-02-06T21:39:05.787Z,104033.44
2023-02-06T21:41:33.399Z,104041.69
2023-02-06T21:44:00.835Z,104043.00
2023-02-06T21:46:30.653Z,104038.53
2023-02-06T21:48:58.448Z,104039.19
2023-02-06T21:51:25.890Z,104036.13
2023-02-06T21:53:53.341Z,104045.38
2023-02-06T21:56:24.651Z,104035.75
2023-02-06T21:58:52.272Z,104046.53
2023-02-06T22:01:21.393Z,104047.00
2023-02-06T22:03:49.475Z,104052.78
2023-02-06T22:06:19.768Z,104042.81
2023-02-06T22:08:51.416Z,104045.28
2023-02-06T22:11:21.125Z,104046.69
2023-02-06T22:13:48.973Z,104047.28
2023-02-06T22:16:17.711Z,104041.34
2023-02-06T22:18:45.177Z,104049.06
2023-02-06T22:21:14.211Z,104045.19
2023-02-06T22:23:42.237Z,104050.84
2023-02-06T22:26:10.929Z,104056.00
2023-02-06T22:28:38.467Z,104048.31
2023-02-06T22:31:10.225Z,104051.66
2023-02-06T22:33:38.324Z,104042.94
2023-02-06T22:36:09.656Z,104047.84
2023-02-06T22:38:37.833Z,104040.25
2023-02-06T22:41:06.994Z,104042.94
2023-02-06T22:43:35.371Z,104039.34
2023-02-06T22:46:02.947Z,104049.88
2023-02-06T22:48:30.504Z,104051.19
2023-02-06T22:50:58.033Z,104044.00
2023-02-06T22:53:31.961Z,104053.22
2023-02-06T22:56:17.499Z,104051.41
2023-02-06T22:58:45.236Z,104052.69
2023-02-06T23:01:13.022Z,104050.38
2023-02-06T23:03:40.569Z,104047.03
2023-02-06T23:06:08.999Z,104046.78
2023-02-06T23:08:36.865Z,104050.84
2023-02-06T23:11:05.306Z,104044.59
2023-02-06T23:13:33.228Z,104049.38
2023-02-06T23:16:00.662Z,104049.38
2023-02-06T23:18:28.574Z,104051.41
2023-02-06T23:20:56.003Z,104049.63
2023-02-06T23:23:23.750Z,104051.00
2023-02-06T23:25:52.404Z,104050.38
2023-02-06T23:28:23.528Z,104057.59
2023-02-06T23:30:51.414Z,104043.16
2023-02-06T23:33:19.275Z,104053.44
2023-02-06T23:35:46.673Z,104058.13
2023-02-06T23:38:14.146Z,104053.50
2023-02-06T23:40:41.536Z,104049.16
2023-02-06T23:43:08.971Z,104052.25
2023-02-06T23:45:36.700Z,104051.47
2023-02-06T23:48:04.407Z,104053.28
2023-02-06T23:50:31.946Z,104049.44
2023-02-06T23:52:59.364Z,104040.47
2023-02-06T23:55:28.409Z,104040.19
2023-02-06T23:57:55.842Z,104042.28
